createdAt,value
2023-04-30T00:01:07.811Z,10.86
2023-04-30T00:03:36.194Z,10.83
2023-04-30T00:06:04.734Z,10.83
2023-04-30T00:08:33.172Z,10.83
2023-04-30T00:11:01.425Z,10.84
2023-04-30T00:13:29.658Z,10.85
2023-04-30T00:15:58.031Z,10.84
2023-04-30T00:18:26.290Z,10.84
2023-04-30T00:20:54.760Z,10.85
2023-04-30T00:23:23.173Z,10.86
2023-04-30T00:25:51.503Z,10.86
2023-04-30T00:28:19.759Z,10.87
2023-04-30T00:30:48.294Z,-16.90
2023-04-30T00:33:16.534Z,-128.00
2023-04-30T00:35:44.939Z,-128.00
2023-04-30T00:38:13.328Z,-44.66
2023-04-30T00:40:44.595Z,-128.00
2023-04-30T00:43:12.872Z,-128.00
2023-04-30T00:45:41.341Z,-128.00
2023-04-30T00:48:09.657Z,-128.00
2023-04-30T00:50:38.280Z,-128.00
2023-04-30T00:53:07.025Z,-128.00
2023-04-30T00:55:35.840Z,-128.00
2023-04-30T00:58:04.237Z,-128.00
2023-04-30T01:00:33.019Z,-128.00
2023-04-30T01:03:01.964Z,-128.00
2023-04-30T01:05:30.988Z,-128.00
2023-04-30T01:07:59.572Z,-128.00
2023-04-30T01:10:36.066Z,-128.00
2023-04-30T01:13:13.090Z,-128.00
2023-04-30T01:16:00.691Z,-128.00
2023-04-30T01:18:40.017Z,-128.00
2023-04-30T01:21:09.266Z,-128.00
2023-04-30T01:24:18.736Z,-128.00
2023-04-30T01:27:07.087Z,-128.00
2023-04-30T01:30:01.960Z,-128.00
2023-04-30T01:32:30.374Z,-128.00
2023-04-30T01:34:59.718Z,-128.00
2023-04-30T01:38:00.170Z,-128.00
2023-04-30T01:40:41.633Z,-128.00
2023-04-30T01:43:23.288Z,-128.00
2023-04-30T01:46:22.858Z,-128.00
2023-04-30T01:48:54.721Z,-128.00
2023-04-30T01:51:58.955Z,-128.00
2023-04-30T01:54:38.682Z,-128.00
2023-04-30T01:57:09.920Z,-128.00
2023-04-30T01:59:39.856Z,-128.00
2023-04-30T02:02:08.266Z,-16.73
2023-04-30T02:04:36.791Z,11.04
2023-04-30T02:07:05.568Z,-128.00
2023-04-30T02:09:33.901Z,-128.00
2023-04-30T02:12:03.188Z,-128.00
2023-04-30T02:14:32.315Z,-128.00
2023-04-30T02:17:00.714Z,-128.00
2023-04-30T02:19:29.220Z,-128.00
2023-04-30T02:21:57.551Z,-128.00
2023-04-30T02:24:25.841Z,-128.00
2023-04-30T02:26:54.168Z,-128.00
2023-04-30T02:29:22.471Z,-128.00
2023-04-30T02:31:50.884Z,-128.00
2023-04-30T02:34:19.204Z,-128.00
2023-04-30T02:36:47.479Z,-128.00
2023-04-30T02:39:15.789Z,-128.00
2023-04-30T02:41:44.116Z,-128.00
2023-04-30T02:44:12.570Z,-128.00
2023-04-30T02:46:41.026Z,-128.00
2023-04-30T02:49:09.258Z,-128.00
2023-04-30T02:51:37.451Z,-128.00
2023-04-30T02:54:05.824Z,-128.00
2023-04-30T02:56:34.679Z,-128.00
2023-04-30T02:59:03.012Z,-128.00
2023-04-30T03:01:31.399Z,-128.00
2023-04-30T03:03:59.736Z,-128.00
2023-04-30T03:06:28.258Z,-128.00
2023-04-30T03:08:56.623Z,-128.00
2023-04-30T03:11:24.829Z,-128.00
2023-04-30T03:13:54.170Z,-128.00
2023-04-30T03:16:22.718Z,-128.00
2023-04-30T03:18:51.244Z,-128.00
2023-04-30T03:21:19.679Z,-128.00
2023-04-30T03:23:48.044Z,-128.00
2023-04-30T03:26:16.373Z,-128.00
2023-04-30T03:28:44.681Z,-128.00
2023-04-30T03:31:13.108Z,-128.00
2023-04-30T03:33:41.507Z,-128.00
2023-04-30T03:36:11.111Z,-128.00
2023-04-30T03:38:39.518Z,-128.00
2023-04-30T03:41:07.848Z,-128.00
2023-04-30T03:43:36.991Z,-128.00
2023-04-30T03:46:05.490Z,-128.00
2023-04-30T03:48:33.851Z,-128.00
2023-04-30T03:51:02.383Z,-128.00
2023-04-30T03:53:30.835Z,-128.00
2023-04-30T03:55:59.350Z,-128.00
2023-04-30T03:58:28.354Z,-128.00
2023-04-30T04:00:56.756Z,-128.00
2023-04-30T04:03:25.548Z,-128.00
2023-04-30T04:05:53.864Z,-128.00
2023-04-30T04:08:22.369Z,-128.00
2023-04-30T04:10:50.803Z,-128.00
2023-04-30T04:13:24.567Z,-128.00
2023-04-30T04:15:53.154Z,-128.00
2023-04-30T04:18:23.490Z,-128.00
2023-04-30T04:20:51.815Z,-128.00
2023-04-30T04:23:21.308Z,-128.00
2023-04-30T04:25:49.867Z,-128.00
2023-04-30T04:28:18.382Z,-128.00
2023-04-30T04:30:46.682Z,-128.00
2023-04-30T04:33:15.105Z,-128.00
2023-04-30T04:35:43.342Z,-128.00
2023-04-30T04:38:11.687Z,-128.00
2023-04-30T04:40:40.099Z,-128.00
2023-04-30T04:43:08.407Z,-128.00
2023-04-30T04:45:37.897Z,-128.00
2023-04-30T04:48:06.235Z,-128.00
2023-04-30T04:50:34.847Z,-128.00
2023-04-30T04:53:03.147Z,-128.00
2023-04-30T04:55:31.632Z,-128.00
2023-04-30T04:57:59.904Z,-128.00
2023-04-30T05:00:28.667Z,-128.00
2023-04-30T05:02:57.252Z,-128.00
2023-04-30T05:05:25.568Z,-128.00
2023-04-30T05:07:55.109Z,-128.00
2023-04-30T05:10:23.378Z,-128.00
2023-04-30T05:12:51.639Z,-128.00
2023-04-30T05:15:20.011Z,-128.00
2023-04-30T05:17:48.426Z,-128.00
2023-04-30T05:20:16.801Z,-128.00
2023-04-30T05:22:45.100Z,-128.00
2023-04-30T05:25:13.572Z,-128.00
2023-04-30T05:27:41.992Z,-128.00
2023-04-30T05:30:11.033Z,-128.00
2023-04-30T05:32:39.343Z,-128.00
2023-04-30T05:35:08.214Z,-128.00
2023-04-30T05:37:36.487Z,-128.00
2023-04-30T05:40:06.311Z,-128.00
2023-04-30T05:42:34.662Z,-128.00
2023-04-30T05:45:03.300Z,-128.00
2023-04-30T05:47:31.492Z,-128.00
2023-04-30T05:49:59.703Z,-128.00
2023-04-30T05:52:28.104Z,-128.00
2023-04-30T05:54:56.417Z,-128.00
2023-04-30T05:57:24.690Z,-128.00
2023-04-30T05:59:54.017Z,-128.00
2023-04-30T06:02:23.218Z,-128.00
2023-04-30T06:04:51.779Z,-128.00
2023-04-30T06:07:19.985Z,-128.00
2023-04-30T06:09:48.610Z,-128.00
2023-04-30T06:12:16.901Z,-128.00
2023-04-30T06:14:46.013Z,-128.00
2023-04-30T06:17:14.328Z,-128.00
2023-04-30T06:19:42.743Z,-128.00
2023-04-30T06:22:11.089Z,-128.00
2023-04-30T06:24:39.588Z,-128.00
2023-04-30T06:27:07.864Z,-128.00
2023-04-30T06:29:36.397Z,-128.00
2023-04-30T06:32:07.764Z,-128.00
2023-04-30T06:34:37.172Z,-128.00
2023-04-30T06:37:05.780Z,-128.00
2023-04-30T06:39:34.260Z,-128.00
2023-04-30T06:42:02.506Z,-128.00
2023-04-30T06:44:30.987Z,-128.00
2023-04-30T06:46:59.978Z,-128.00
2023-04-30T06:49:29.243Z,-128.00
2023-04-30T06:51:58.731Z,-128.00
2023-04-30T06:54:28.211Z,-128.00
2023-04-30T06:56:56.993Z,-128.00
2023-04-30T06:59:25.495Z,-128.00
2023-04-30T07:01:55.657Z,-128.00
2023-04-30T07:04:24.710Z,-128.00
2023-04-30T07:06:53.157Z,-128.00
2023-04-30T07:09:21.809Z,-128.00
2023-04-30T07:11:51.392Z,-128.00
2023-04-30T07:14:19.973Z,-128.00
2023-04-30T07:16:50.979Z,-128.00
2023-04-30T07:19:19.987Z,-128.00
2023-04-30T07:21:48.478Z,-128.00
2023-04-30T07:24:19.891Z,-128.00
2023-04-30T07:26:49.883Z,-128.00
2023-04-30T07:29:22.490Z,-128.00
2023-04-30T07:31:51.809Z,-128.00
2023-04-30T07:34:20.287Z,-128.00
2023-04-30T07:36:49.037Z,-128.00
2023-04-30T07:39:18.043Z,-128.00
2023-04-30T07:41:46.468Z,-128.00
2023-04-30T07:44:14.858Z,-128.00
2023-04-30T07:46:43.512Z,-128.00
2023-04-30T07:49:12.034Z,-128.00
2023-04-30T07:51:43.888Z,-128.00
2023-04-30T07:54:12.699Z,-128.00
2023-04-30T07:56:41.993Z,-128.00
2023-04-30T07:59:10.362Z,-128.00
2023-04-30T08:01:39.594Z,-128.00
2023-04-30T08:04:08.211Z,-128.00
2023-04-30T08:06:37.022Z,-128.00
2023-04-30T08:09:05.738Z,-128.00
2023-04-30T08:11:34.223Z,-128.00
2023-04-30T08:14:03.408Z,-128.00
2023-04-30T08:16:32.003Z,-128.00
2023-04-30T08:19:00.673Z,-128.00
2023-04-30T08:21:31.618Z,-128.00
2023-04-30T08:24:00.003Z,-128.00
2023-04-30T08:26:30.645Z,-128.00
2023-04-30T08:28:59.384Z,-128.00
2023-04-30T08:31:27.981Z,-128.00
2023-04-30T08:33:56.479Z,-128.00
2023-04-30T08:36:24.979Z,-128.00
2023-04-30T08:38:53.888Z,-128.00
2023-04-30T08:41:27.196Z,-128.00
2023-04-30T08:43:58.164Z,-128.00
2023-04-30T08:46:26.946Z,-128.00
2023-04-30T08:48:55.944Z,-128.00
2023-04-30T08:51:27.853Z,-128.00
2023-04-30T08:53:57.902Z,-128.00
2023-04-30T08:56:26.430Z,-128.00
2023-04-30T08:58:54.939Z,-128.00
2023-04-30T09:01:24.115Z,-128.00
2023-04-30T09:03:55.923Z,-128.00
2023-04-30T09:06:25.095Z,-128.00
2023-04-30T09:08:54.474Z,-128.00
2023-04-30T09:11:28.095Z,-128.00
2023-04-30T09:14:00.157Z,-128.00
2023-04-30T09:16:33.242Z,-128.00
2023-04-30T09:19:05.723Z,-128.00
2023-04-30T09:21:37.833Z,-128.00
2023-04-30T09:24:06.581Z,-128.00
2023-04-30T09:26:38.302Z,-128.00
2023-04-30T09:29:08.843Z,-128.00
2023-04-30T09:31:40.861Z,-128.00
2023-04-30T09:34:09.429Z,-128.00
2023-04-30T09:36:55.495Z,-128.00
2023-04-30T09:39:24.179Z,-128.00
2023-04-30T09:43:04.424Z,14.03
2023-04-30T09:45:53.072Z,13.89
2023-04-30T09:48:28.260Z,13.75
2023-04-30T09:50:58.503Z,13.62
2023-04-30T09:53:27.033Z,13.63
2023-04-30T09:55:59.263Z,13.81
2023-04-30T09:58:30.709Z,13.87
2023-04-30T10:01:01.762Z,13.91
2023-04-30T10:03:36.865Z,14.00
2023-04-30T10:06:08.228Z,14.01
2023-04-30T10:08:43.946Z,13.98
2023-04-30T10:11:29.441Z,13.98
2023-04-30T10:14:20.431Z,13.86
2023-04-30T10:17:06.944Z,13.78
2023-04-30T10:19:41.878Z,13.83
2023-04-30T10:22:11.138Z,13.87
2023-04-30T10:24:39.962Z,13.93
2023-04-30T10:27:08.800Z,14.06
2023-04-30T10:29:37.115Z,14.09
2023-04-30T10:32:06.838Z,14.16
2023-04-30T10:34:46.005Z,14.24
2023-04-30T10:37:45.678Z,14.36
2023-04-30T10:40:15.132Z,14.58
2023-04-30T10:42:47.493Z,14.94
2023-04-30T10:45:20.878Z,15.27
2023-04-30T10:47:49.471Z,15.30
2023-04-30T10:50:18.758Z,15.28
2023-04-30T10:52:47.107Z,15.34
2023-04-30T10:55:17.472Z,15.40
2023-04-30T10:57:48.541Z,15.27
2023-04-30T11:00:26.030Z,15.22
2023-04-30T11:03:04.090Z,15.36
2023-04-30T11:05:39.277Z,15.63
2023-04-30T11:08:11.974Z,15.95
2023-04-30T11:11:00.469Z,16.42
2023-04-30T11:13:28.950Z,16.85
2023-04-30T11:16:04.739Z,17.19
2023-04-30T11:18:33.437Z,17.46
2023-04-30T11:21:12.428Z,17.46
2023-04-30T11:23:45.936Z,17.38
2023-04-30T11:26:18.960Z,17.45
2023-04-30T11:28:53.557Z,17.13
2023-04-30T11:31:23.039Z,16.84
2023-04-30T11:33:52.520Z,16.97
2023-04-30T11:36:29.827Z,17.28
2023-04-30T11:39:06.334Z,17.51
2023-04-30T11:41:44.037Z,17.85
2023-04-30T11:44:31.049Z,18.24
2023-04-30T11:47:03.293Z,18.50
2023-04-30T11:49:37.869Z,18.92
2023-04-30T11:52:14.821Z,18.81
2023-04-30T11:54:43.937Z,18.47
2023-04-30T11:57:17.000Z,18.22
2023-04-30T11:59:46.158Z,18.32
2023-04-30T12:02:22.567Z,18.50
2023-04-30T12:04:54.710Z,18.69
2023-04-30T12:07:26.503Z,18.83
2023-04-30T12:10:01.900Z,19.01
2023-04-30T12:12:35.510Z,19.08
2023-04-30T12:15:27.280Z,19.15
2023-04-30T12:18:00.276Z,18.89
2023-04-30T12:20:32.999Z,18.58
2023-04-30T12:23:04.468Z,18.11
2023-04-30T12:25:42.174Z,18.02
2023-04-30T12:28:14.070Z,18.04
2023-04-30T12:30:43.862Z,18.25
2023-04-30T12:33:12.185Z,18.29
2023-04-30T12:35:43.556Z,18.24
2023-04-30T12:38:18.515Z,18.31
2023-04-30T12:40:50.777Z,18.47
2023-04-30T12:43:19.290Z,18.53
2023-04-30T12:45:55.264Z,18.58
2023-04-30T12:48:25.947Z,18.37
2023-04-30T12:51:02.174Z,18.13
2023-04-30T12:53:32.132Z,18.07
2023-04-30T12:56:16.470Z,18.07
2023-04-30T12:58:47.615Z,17.95
2023-04-30T13:01:25.426Z,17.78
2023-04-30T13:03:54.262Z,17.76
2023-04-30T13:06:23.766Z,17.81
2023-04-30T13:08:58.531Z,17.87
2023-04-30T13:11:27.862Z,17.90
2023-04-30T13:13:56.839Z,18.12
2023-04-30T13:16:25.648Z,18.29
2023-04-30T13:18:55.213Z,18.54
2023-04-30T13:21:25.145Z,18.88
2023-04-30T13:23:54.843Z,19.13
2023-04-30T13:26:23.993Z,19.48
2023-04-30T13:28:52.520Z,19.56
2023-04-30T13:31:20.962Z,19.57
2023-04-30T13:33:50.369Z,19.65
2023-04-30T13:36:18.660Z,19.56
2023-04-30T13:38:47.153Z,19.31
2023-04-30T13:41:15.637Z,19.20
2023-04-30T13:43:44.794Z,19.06
2023-04-30T13:46:13.476Z,18.99
2023-04-30T13:48:48.348Z,18.92
2023-04-30T13:51:16.694Z,18.70
2023-04-30T13:53:45.162Z,18.62
2023-04-30T13:56:15.414Z,18.72
2023-04-30T13:58:44.382Z,18.87
2023-04-30T14:01:14.094Z,18.79
2023-04-30T14:03:43.629Z,18.63
2023-04-30T14:06:12.251Z,18.50
2023-04-30T14:08:40.678Z,18.39
2023-04-30T14:11:10.308Z,18.17
2023-04-30T14:13:38.575Z,18.18
2023-04-30T14:16:07.397Z,18.28
2023-04-30T14:18:38.923Z,18.17
2023-04-30T14:21:08.876Z,18.13
2023-04-30T14:23:39.343Z,17.91
2023-04-30T14:26:07.784Z,17.64
2023-04-30T14:28:37.672Z,17.48
2023-04-30T14:31:07.882Z,17.31
2023-04-30T14:33:59.875Z,17.24
2023-04-30T14:36:30.396Z,17.18
2023-04-30T14:38:59.563Z,17.04
2023-04-30T14:41:30.357Z,16.99
2023-04-30T14:44:00.199Z,16.89
2023-04-30T14:46:29.062Z,16.78
2023-04-30T14:48:57.837Z,16.63
2023-04-30T14:51:26.203Z,16.50
2023-04-30T14:54:03.986Z,16.45
2023-04-30T14:56:33.361Z,16.38
2023-04-30T14:59:07.844Z,16.34
2023-04-30T15:01:43.280Z,16.30
2023-04-30T15:04:12.030Z,16.27
2023-04-30T15:06:43.456Z,16.21
2023-04-30T15:09:18.440Z,16.08
2023-04-30T15:11:47.040Z,16.06
2023-04-30T15:14:17.157Z,16.06
2023-04-30T15:16:46.891Z,15.99
2023-04-30T15:19:19.227Z,15.89
2023-04-30T15:21:49.115Z,15.79
2023-04-30T15:27:06.863Z,15.60
2023-04-30T15:29:42.494Z,15.59
2023-04-30T15:32:15.811Z,15.54
2023-04-30T15:34:45.317Z,15.53
2023-04-30T15:37:13.769Z,15.52
2023-04-30T15:39:43.808Z,15.48
2023-04-30T15:42:18.546Z,15.41
2023-04-30T15:44:50.893Z,15.36
2023-04-30T15:47:23.898Z,15.29
2023-04-30T15:49:57.355Z,15.24
2023-04-30T15:52:30.235Z,15.16
2023-04-30T15:55:11.488Z,15.09
2023-04-30T15:57:49.254Z,15.05
2023-04-30T16:00:18.794Z,15.04
2023-04-30T16:02:47.349Z,15.02
2023-04-30T16:05:15.686Z,14.98
2023-04-30T16:07:45.692Z,14.93
2023-04-30T16:10:14.751Z,14.87
2023-04-30T16:12:43.079Z,14.80
2023-04-30T16:15:11.869Z,14.72
2023-04-30T16:17:41.236Z,14.65
2023-04-30T16:20:11.504Z,14.60
2023-04-30T16:22:39.995Z,14.54
2023-04-30T16:25:10.147Z,14.48
2023-04-30T16:27:40.543Z,14.43
2023-04-30T16:30:09.743Z,14.38
2023-04-30T16:32:38.047Z,14.33
2023-04-30T16:35:06.860Z,14.29
2023-04-30T16:37:35.924Z,14.24
2023-04-30T16:40:06.461Z,14.20
2023-04-30T16:42:35.096Z,14.14
2023-04-30T16:45:04.920Z,14.07
2023-04-30T16:47:33.337Z,14.01
2023-04-30T16:50:02.195Z,13.97
2023-04-30T16:52:31.134Z,13.91
2023-04-30T16:54:59.610Z,13.85
2023-04-30T16:57:31.600Z,13.78
2023-04-30T17:00:00.144Z,13.72
2023-04-30T17:02:34.119Z,13.64
2023-04-30T17:05:05.200Z,13.57
2023-04-30T17:07:34.872Z,13.51
2023-04-30T17:10:09.502Z,13.44
2023-04-30T17:12:38.792Z,13.35
2023-04-30T17:15:09.202Z,13.26
2023-04-30T17:17:51.049Z,13.16
2023-04-30T17:20:22.058Z,13.07
2023-04-30T17:22:51.160Z,12.97
2023-04-30T17:25:19.638Z,12.87
2023-04-30T17:27:48.018Z,12.77
2023-04-30T17:30:27.633Z,12.66
2023-04-30T17:32:56.800Z,12.55
2023-04-30T17:35:25.289Z,12.45
2023-04-30T17:37:54.206Z,12.36
2023-04-30T17:40:22.731Z,12.27
2023-04-30T17:42:52.090Z,12.16
2023-04-30T17:45:20.437Z,12.04
2023-04-30T17:47:48.835Z,11.92
2023-04-30T17:50:17.365Z,11.80
2023-04-30T17:52:45.994Z,11.68
2023-04-30T17:55:17.957Z,11.58
2023-04-30T17:57:48.513Z,11.47
2023-04-30T18:00:30.101Z,11.38
2023-04-30T18:03:35.332Z,11.26
2023-04-30T18:06:20.757Z,11.13
2023-04-30T18:09:07.466Z,11.02
2023-04-30T18:11:43.651Z,10.89
2023-04-30T18:14:20.561Z,10.75
2023-04-30T18:17:05.029Z,10.63
2023-04-30T18:19:44.853Z,10.50
2023-04-30T18:22:19.783Z,10.37
2023-04-30T18:25:01.636Z,10.24
2023-04-30T18:27:35.192Z,10.12
2023-04-30T18:30:14.296Z,9.98
2023-04-30T18:32:47.451Z,9.83
2023-04-30T18:35:23.825Z,9.69
2023-04-30T18:37:57.664Z,9.55
2023-04-30T18:40:26.666Z,9.39
2023-04-30T18:43:06.679Z,9.26
2023-04-30T18:45:35.829Z,9.12
2023-04-30T18:48:05.795Z,8.98
2023-04-30T18:50:34.817Z,8.86
2023-04-30T18:53:13.020Z,8.74
2023-04-30T18:55:48.482Z,8.61
2023-04-30T18:58:17.173Z,8.49
2023-04-30T19:00:49.250Z,8.33
2023-04-30T19:03:18.186Z,8.19
2023-04-30T19:06:12.498Z,8.06
2023-04-30T19:08:40.988Z,7.93
2023-04-30T19:11:11.583Z,7.83
2023-04-30T19:13:39.845Z,7.72
2023-04-30T19:16:08.292Z,7.61
2023-04-30T19:18:38.646Z,7.50
2023-04-30T19:21:07.288Z,7.39
2023-04-30T19:23:36.002Z,7.29
2023-04-30T19:26:04.428Z,7.17
2023-04-30T19:29:04.772Z,7.04
2023-04-30T19:31:35.266Z,6.88
2023-04-30T19:34:03.940Z,6.76
2023-04-30T19:36:32.464Z,6.68
2023-04-30T19:39:00.918Z,6.60
2023-04-30T19:41:29.197Z,6.52
2023-04-30T19:43:57.437Z,6.42
2023-04-30T19:46:26.037Z,6.33
2023-04-30T19:48:54.280Z,6.25
2023-04-30T19:51:22.609Z,6.18
2023-04-30T19:53:52.418Z,6.10
2023-04-30T19:56:20.887Z,6.04
2023-04-30T19:58:49.239Z,5.97
2023-04-30T20:01:18.685Z,5.90
2023-04-30T20:03:47.168Z,5.83
2023-04-30T20:06:15.683Z,5.76
2023-04-30T20:08:44.046Z,5.68
2023-04-30T20:11:12.254Z,5.61
2023-04-30T20:13:41.811Z,5.51
2023-04-30T20:16:12.799Z,5.40
2023-04-30T20:18:42.237Z,5.33
2023-04-30T20:21:10.733Z,5.27
2023-04-30T20:23:42.265Z,5.18
2023-04-30T20:26:11.589Z,5.09
2023-04-30T20:28:40.111Z,4.98
2023-04-30T20:31:10.210Z,4.92
2023-04-30T20:33:41.327Z,4.88
2023-04-30T20:36:09.712Z,4.81
2023-04-30T20:38:38.273Z,4.73
2023-04-30T20:41:06.608Z,4.68
2023-04-30T20:43:34.898Z,4.63
2023-04-30T20:46:03.389Z,4.58
2023-04-30T20:48:31.756Z,4.52
2023-04-30T20:50:59.974Z,4.45
2023-04-30T20:53:28.385Z,4.40
2023-04-30T20:56:00.212Z,4.35
2023-04-30T20:58:28.850Z,4.29
2023-04-30T21:00:57.205Z,4.22
2023-04-30T21:03:25.881Z,4.14
2023-04-30T21:05:54.324Z,4.10
2023-04-30T21:08:22.695Z,4.06
2023-04-30T21:10:51.101Z,4.01
2023-04-30T21:13:19.599Z,3.97
2023-04-30T21:15:49.012Z,3.92
2023-04-30T21:18:17.551Z,3.88
2023-04-30T21:20:46.280Z,3.84
2023-04-30T21:23:14.717Z,3.81
2023-04-30T21:25:45.431Z,3.76
2023-04-30T21:28:13.608Z,3.72
2023-04-30T21:30:42.132Z,3.68
2023-04-30T21:33:10.461Z,3.63
2023-04-30T21:35:39.580Z,3.58
2023-04-30T21:38:08.215Z,3.53
2023-04-30T21:40:36.497Z,3.49
2023-04-30T21:43:04.982Z,3.43
2023-04-30T21:45:33.374Z,3.38
2023-04-30T21:48:01.765Z,3.32
2023-04-30T21:50:33.688Z,3.26
2023-04-30T21:53:03.427Z,3.22
2023-04-30T21:55:31.813Z,3.17
2023-04-30T21:58:00.316Z,3.14
2023-04-30T22:00:28.723Z,3.10
2023-04-30T22:02:57.111Z,3.05
2023-04-30T22:05:26.066Z,3.01
2023-04-30T22:07:55.166Z,2.96
2023-04-30T22:10:25.836Z,2.93
2023-04-30T22:12:54.239Z,2.88
2023-04-30T22:15:22.849Z,2.83
2023-04-30T22:17:51.425Z,2.79
2023-04-30T22:20:19.790Z,2.77
2023-04-30T22:22:48.191Z,2.76
2023-04-30T22:25:17.962Z,2.72
2023-04-30T22:27:47.264Z,2.70
2023-04-30T22:30:16.328Z,2.68
2023-04-30T22:32:45.325Z,2.63
2023-04-30T22:35:17.185Z,2.60
2023-04-30T22:37:45.995Z,2.58
2023-04-30T22:40:14.767Z,2.56
2023-04-30T22:42:43.933Z,2.55
2023-04-30T22:45:12.771Z,2.52
2023-04-30T22:47:42.114Z,2.50
2023-04-30T22:50:10.778Z,2.47
2023-04-30T22:52:39.264Z,2.44
2023-04-30T22:55:08.325Z,2.41
2023-04-30T22:57:36.694Z,2.38
2023-04-30T23:00:05.832Z,2.35
2023-04-30T23:02:34.430Z,2.31
2023-04-30T23:05:03.744Z,2.29
2023-04-30T23:07:32.225Z,2.26
2023-04-30T23:10:00.568Z,2.24
2023-04-30T23:12:29.307Z,2.23
2023-04-30T23:14:57.587Z,2.20
2023-04-30T23:17:27.301Z,2.16
2023-04-30T23:19:55.850Z,2.14
2023-04-30T23:22:24.588Z,2.11
2023-04-30T23:24:53.153Z,2.08
2023-04-30T23:27:21.392Z,2.04
2023-04-30T23:29:49.707Z,2.01
2023-04-30T23:32:18.648Z,2.00
2023-04-30T23:34:47.713Z,1.98
2023-04-30T23:37:19.022Z,1.94
2023-04-30T23:39:47.424Z,1.93
2023-04-30T23:42:15.739Z,1.91
2023-04-30T23:44:44.104Z,1.90
2023-04-30T23:47:12.726Z,1.86
2023-04-30T23:49:41.184Z,1.84
2023-04-30T23:52:09.707Z,1.83
2023-04-30T23:54:38.259Z,1.80
2023-04-30T23:57:06.591Z,1.79
2023-04-30T23:59:34.892Z,1.77
